createdAt,value
2022-08-16T00:01:23.704Z,95012.78
2022-08-16T00:03:53.173Z,95014.06
2022-08-16T00:06:21.384Z,95025.22
2022-08-16T00:08:52.434Z,95024.13
2022-08-16T00:11:22.554Z,95020.56
2022-08-16T00:13:53.507Z,95030.38
2022-08-16T00:17:00.493Z,95031.19
2022-08-16T00:19:13.736Z,95026.63
2022-08-16T00:21:43.070Z,95029.75
2022-08-16T00:24:12.133Z,95031.28
2022-08-16T00:26:44.285Z,95039.72
2022-08-16T00:29:16.253Z,95034.59
2022-08-16T00:31:59.258Z,95031.84
2022-08-16T00:34:44.637Z,95036.13
2022-08-16T00:37:20.440Z,95039.06
2022-08-16T00:39:58.160Z,95039.63
2022-08-16T00:42:32.057Z,95038.31
2022-08-16T00:45:08.712Z,95042.81
2022-08-16T00:47:49.584Z,95035.25
2022-08-16T00:50:20.099Z,95037.06
2022-08-16T00:52:50.816Z,95035.06
2022-08-16T00:55:21.871Z,95037.09
2022-08-16T00:58:00.077Z,95029.50
2022-08-16T01:00:30.327Z,95029.50
2022-08-16T01:03:02.047Z,95031.63
2022-08-16T01:05:32.949Z,95032.06
2022-08-16T01:08:02.834Z,95030.88
2022-08-16T01:10:51.284Z,95031.84
2022-08-16T01:13:24.130Z,95031.28
2022-08-16T01:15:57.780Z,95027.50
2022-08-16T01:18:40.377Z,95036.56
2022-08-16T01:21:22.786Z,95034.38
2022-08-16T01:24:02.240Z,95030.75
2022-08-16T01:26:35.530Z,95029.28
2022-08-16T01:29:09.743Z,95023.31
2022-08-16T01:31:42.473Z,95029.59
2022-08-16T01:34:25.049Z,95018.94
2022-08-16T01:37:00.336Z,95015.94
2022-08-16T01:39:35.550Z,95019.91
2022-08-16T01:42:12.196Z,95011.34
2022-08-16T01:44:43.388Z,95018.13
2022-08-16T01:47:11.507Z,95010.59
2022-08-16T01:49:45.530Z,95011.28
2022-08-16T01:52:30.688Z,95004.41
2022-08-16T01:55:14.450Z,95007.41
2022-08-16T01:57:53.214Z,95001.84
2022-08-16T02:00:29.133Z,95000.94
2022-08-16T02:03:00.166Z,95011.75
2022-08-16T02:05:30.692Z,95005.28
2022-08-16T02:08:01.127Z,95014.31
2022-08-16T02:10:33.954Z,95003.47
2022-08-16T02:13:03.632Z,95007.75
2022-08-16T02:15:37.882Z,95010.88
2022-08-16T02:18:12.513Z,95013.66
2022-08-16T02:20:45.383Z,95006.22
2022-08-16T02:23:17.243Z,95001.84
2022-08-16T02:25:52.334Z,95015.50
2022-08-16T02:28:24.708Z,95014.78
2022-08-16T02:30:54.275Z,95016.41
2022-08-16T02:33:24.844Z,95008.19
2022-08-16T02:36:47.567Z,95006.41
2022-08-16T02:39:05.309Z,95005.34
2022-08-16T02:41:39.256Z,95010.78
2022-08-16T02:44:09.068Z,95007.56
2022-08-16T02:46:38.153Z,95006.75
2022-08-16T02:49:07.712Z,95009.19
2022-08-16T02:51:38.484Z,95005.47
2022-08-16T02:54:09.798Z,95009.75
2022-08-16T02:56:39.837Z,95005.47
2022-08-16T02:59:11.400Z,95010.22
2022-08-16T03:01:41.680Z,95012.91
2022-08-16T03:04:39.726Z,95003.19
2022-08-16T03:07:15.904Z,94999.56
2022-08-16T03:09:55.450Z,95000.63
2022-08-16T03:12:30.246Z,95002.84
2022-08-16T03:14:59.529Z,95008.31
2022-08-16T03:17:32.403Z,95010.06
2022-08-16T03:20:03.285Z,95002.53
2022-08-16T03:22:38.363Z,94993.28
2022-08-16T03:25:17.547Z,95000.81
2022-08-16T03:28:03.627Z,95006.59
2022-08-16T03:30:37.390Z,95002.31
2022-08-16T03:33:08.165Z,94997.91
2022-08-16T03:35:44.774Z,95002.59
2022-08-16T03:38:34.537Z,95002.22
2022-08-16T03:41:14.462Z,95002.47
2022-08-16T03:43:56.338Z,95006.88
2022-08-16T03:46:48.240Z,95007.94
2022-08-16T03:49:20.049Z,95007.13
2022-08-16T03:51:53.071Z,95017.78
2022-08-16T03:54:24.983Z,95005.41
2022-08-16T03:56:58.764Z,95010.53
2022-08-16T03:59:32.466Z,95004.84
2022-08-16T04:02:22.064Z,95002.91
2022-08-16T04:04:53.925Z,95007.53
2022-08-16T04:07:24.759Z,95004.75
2022-08-16T04:09:52.954Z,95012.66
2022-08-16T04:12:54.403Z,95008.59
2022-08-16T04:15:16.898Z,95010.22
2022-08-16T04:17:55.864Z,95010.69
2022-08-16T04:20:33.722Z,95008.50
2022-08-16T04:23:08.422Z,95011.75
2022-08-16T04:25:41.394Z,95004.44
2022-08-16T04:28:52.389Z,95004.22
2022-08-16T04:31:00.994Z,95014.06
2022-08-16T04:33:30.460Z,95010.81
2022-08-16T04:36:03.234Z,95008.63
2022-08-16T04:38:34.084Z,95021.22
2022-08-16T04:41:02.959Z,95023.66
2022-08-16T04:43:38.160Z,95023.41
2022-08-16T04:46:30.726Z,95025.63
2022-08-16T04:49:08.020Z,95022.59
2022-08-16T04:51:36.672Z,95032.22
2022-08-16T04:54:07.314Z,95030.81
2022-08-16T04:56:36.333Z,95028.88
2022-08-16T04:59:14.335Z,95033.94
2022-08-16T05:01:56.093Z,95031.66
2022-08-16T05:04:30.091Z,95034.66
2022-08-16T05:07:00.515Z,95028.84
2022-08-16T05:09:51.202Z,95031.06
2022-08-16T05:12:30.316Z,95026.88
2022-08-16T05:15:02.357Z,95032.44
2022-08-16T05:17:33.836Z,95035.31
2022-08-16T05:20:35.594Z,95038.09
2022-08-16T05:22:59.560Z,95033.91
2022-08-16T05:25:36.415Z,95047.22
2022-08-16T05:28:10.632Z,95048.00
2022-08-16T05:30:43.330Z,95041.00
2022-08-16T05:33:21.171Z,95038.13
2022-08-16T05:35:54.692Z,95038.53
2022-08-16T05:38:39.359Z,95036.63
2022-08-16T05:41:13.861Z,95044.00
2022-08-16T05:43:47.469Z,95042.66
2022-08-16T05:46:34.847Z,95043.97
2022-08-16T05:49:22.558Z,95048.53
2022-08-16T05:51:57.335Z,95050.41
2022-08-16T05:54:26.163Z,95058.91
2022-08-16T05:56:59.939Z,95053.72
2022-08-16T05:59:28.315Z,95053.06
2022-08-16T06:01:57.781Z,95055.97
2022-08-16T06:04:37.590Z,95055.97
2022-08-16T06:07:24.837Z,95057.53
2022-08-16T06:10:32.522Z,95055.34
2022-08-16T06:13:05.278Z,95052.03
2022-08-16T06:15:35.171Z,95049.53
2022-08-16T06:18:04.813Z,95050.25
2022-08-16T06:20:35.521Z,95050.47
2022-08-16T06:23:26.550Z,95044.25
2022-08-16T06:26:00.951Z,95051.88
2022-08-16T06:28:34.888Z,95048.81
2022-08-16T06:31:05.185Z,95049.94
2022-08-16T06:33:41.305Z,95044.16
2022-08-16T06:36:13.963Z,95037.88
2022-08-16T06:38:56.144Z,95044.88
2022-08-16T06:41:39.823Z,95043.38
2022-08-16T06:44:24.373Z,95042.06
2022-08-16T06:46:57.051Z,95055.31
2022-08-16T06:49:24.976Z,95055.34
2022-08-16T06:51:54.502Z,95063.47
2022-08-16T06:54:34.266Z,95060.00
2022-08-16T06:57:02.787Z,95051.13
2022-08-16T06:59:32.258Z,95055.97
2022-08-16T07:02:33.349Z,95050.63
2022-08-16T07:05:03.465Z,95061.91
2022-08-16T07:07:50.844Z,95064.59
2022-08-16T07:10:25.854Z,95055.97
2022-08-16T07:13:03.853Z,95059.22
2022-08-16T07:15:50.129Z,95057.59
2022-08-16T07:18:24.886Z,95056.75
2022-08-16T07:20:54.502Z,95053.53
2022-08-16T07:23:38.936Z,95070.44
2022-08-16T07:26:24.845Z,95056.66
2022-08-16T07:28:57.248Z,95053.91
2022-08-16T07:31:25.018Z,95053.63
2022-08-16T07:34:11.084Z,95059.19
2022-08-16T07:36:41.202Z,95060.19
2022-08-16T07:39:15.949Z,95060.41
2022-08-16T07:41:45.645Z,95058.22
2022-08-16T07:44:16.771Z,95061.94
2022-08-16T07:46:45.951Z,95062.97
2022-08-16T07:49:22.363Z,95070.69
2022-08-16T07:51:56.001Z,95069.19
2022-08-16T07:54:39.107Z,95070.41
2022-08-16T07:57:11.704Z,95066.00
2022-08-16T07:59:46.463Z,95074.03
2022-08-16T08:02:20.477Z,95070.09
2022-08-16T08:04:57.645Z,95070.63
2022-08-16T08:07:28.327Z,95069.13
2022-08-16T08:09:59.234Z,95071.00
2022-08-16T08:12:32.335Z,95073.63
2022-08-16T08:15:05.863Z,95071.78
2022-08-16T08:17:43.036Z,95078.56
2022-08-16T08:20:20.652Z,95074.91
2022-08-16T08:23:00.522Z,95080.03
2022-08-16T08:25:53.413Z,95084.59
2022-08-16T08:28:20.531Z,95082.28
2022-08-16T08:31:01.095Z,95079.94
2022-08-16T08:33:31.395Z,95079.97
2022-08-16T08:36:01.385Z,95084.09
2022-08-16T08:38:44.291Z,95076.38
2022-08-16T08:41:18.869Z,95074.78
2022-08-16T08:43:51.492Z,95076.97
2022-08-16T08:46:22.001Z,95078.56
2022-08-16T08:48:59.417Z,95084.28
2022-08-16T08:51:35.595Z,95084.47
2022-08-16T08:54:09.749Z,95088.28
2022-08-16T08:56:45.882Z,95085.63
2022-08-16T08:59:29.435Z,95080.72
2022-08-16T09:01:58.704Z,95077.50
2022-08-16T09:04:31.688Z,95082.59
2022-08-16T09:07:01.718Z,95080.00
2022-08-16T09:09:33.777Z,95082.25
2022-08-16T09:12:07.301Z,95073.06
2022-08-16T09:14:52.581Z,95067.78
2022-08-16T09:17:49.163Z,95074.69
2022-08-16T09:20:16.596Z,95075.25
2022-08-16T09:22:52.390Z,95071.88
2022-08-16T09:25:33.698Z,95075.72
2022-08-16T09:28:09.417Z,95067.38
2022-08-16T09:30:45.147Z,95057.81
2022-08-16T09:33:19.632Z,95074.13
2022-08-16T09:35:53.566Z,95068.50
2022-08-16T09:38:31.922Z,95066.41
2022-08-16T09:41:02.144Z,95067.34
2022-08-16T09:43:59.249Z,95057.28
2022-08-16T09:46:44.714Z,95056.44
2022-08-16T09:49:09.083Z,95052.66
2022-08-16T09:51:40.067Z,95057.22
2022-08-16T09:54:09.620Z,95052.75
2022-08-16T09:56:52.791Z,95055.25
2022-08-16T09:59:25.149Z,95048.91
2022-08-16T10:01:54.591Z,95046.22
2022-08-16T10:04:31.699Z,95044.81
2022-08-16T10:07:15.017Z,95052.06
2022-08-16T10:09:55.355Z,95043.50
2022-08-16T10:12:43.373Z,95050.47
2022-08-16T10:15:17.010Z,95038.97
2022-08-16T10:18:01.562Z,95046.56
2022-08-16T10:20:34.617Z,95046.13
2022-08-16T10:23:07.119Z,95028.91
2022-08-16T10:27:19.135Z,95046.25
2022-08-16T10:28:29.357Z,95038.59
2022-08-16T10:31:00.922Z,95048.72
2022-08-16T10:33:34.024Z,95045.13
2022-08-16T10:36:04.880Z,95036.22
2022-08-16T10:38:36.589Z,95042.25
2022-08-16T10:41:06.951Z,95034.63
2022-08-16T10:43:35.452Z,95037.72
2022-08-16T10:46:39.515Z,95036.28
2022-08-16T10:48:54.952Z,95038.25
2022-08-16T10:51:33.732Z,95038.63
2022-08-16T10:54:29.143Z,95032.44
2022-08-16T10:56:58.091Z,95033.00
2022-08-16T10:59:38.928Z,95038.59
2022-08-16T11:03:37.599Z,95031.22
2022-08-16T11:05:08.933Z,95041.25
2022-08-16T11:07:53.614Z,95030.16
2022-08-16T11:19:05.575Z,95038.59
2022-08-16T11:22:38.771Z,95038.66
2022-08-16T11:24:41.633Z,95042.56
2022-08-16T11:27:20.502Z,95037.16
2022-08-16T11:29:52.237Z,95033.81
2022-08-16T11:32:30.100Z,95029.56
2022-08-16T11:35:13.854Z,95033.00
2022-08-16T11:40:37.790Z,95033.66
2022-08-16T11:43:07.647Z,95036.38
2022-08-16T11:45:40.574Z,95036.03
2022-08-16T11:48:10.891Z,95037.47
2022-08-16T11:50:40.414Z,95024.28
2022-08-16T11:53:08.537Z,95026.94
2022-08-16T11:55:38.468Z,95030.75
2022-08-16T11:58:11.050Z,95027.94
2022-08-16T12:00:50.322Z,95023.41
2022-08-16T12:03:19.148Z,95020.50
2022-08-16T12:05:52.088Z,95021.84
2022-08-16T12:08:26.022Z,95034.53
2022-08-16T12:10:59.381Z,95025.44
2022-08-16T12:13:29.926Z,95024.28
2022-08-16T12:15:57.655Z,95020.91
2022-08-16T12:18:26.304Z,95019.09
2022-08-16T12:20:55.512Z,95020.81
2022-08-16T12:23:26.123Z,95025.31
2022-08-16T12:25:54.128Z,95015.25
2022-08-16T12:28:36.931Z,95009.47
2022-08-16T12:31:10.388Z,95002.13
2022-08-16T12:33:44.763Z,95007.72
2022-08-16T12:36:16.965Z,95012.63
2022-08-16T12:38:48.345Z,95008.00
2022-08-16T12:41:24.499Z,95005.00
2022-08-16T12:43:57.133Z,95001.78
2022-08-16T12:46:30.900Z,95005.63
2022-08-16T12:48:58.327Z,95008.81
2022-08-16T12:51:54.322Z,95011.38
2022-08-16T12:54:19.875Z,95009.78
2022-08-16T12:56:50.502Z,95004.03
2022-08-16T12:59:20.822Z,95003.09
2022-08-16T13:01:58.330Z,94996.00
2022-08-16T13:04:27.961Z,94991.06
2022-08-16T13:07:04.999Z,94992.00
2022-08-16T13:09:42.836Z,94994.38
2022-08-16T13:12:19.729Z,94984.41
2022-08-16T13:14:50.098Z,94986.44
2022-08-16T13:17:22.014Z,94986.47
2022-08-16T13:20:07.346Z,94997.09
2022-08-16T13:22:38.167Z,94989.78
2022-08-16T13:25:07.405Z,94984.88
2022-08-16T13:28:02.244Z,94991.44
2022-08-16T13:30:37.120Z,94980.22
2022-08-16T13:33:10.716Z,94981.47
2022-08-16T13:35:42.955Z,94969.44
2022-08-16T13:38:21.694Z,94970.22
2022-08-16T13:40:56.152Z,94971.97
2022-08-16T13:43:26.674Z,94981.84
2022-08-16T13:45:55.894Z,94987.22
2022-08-16T13:48:25.542Z,94971.66
2022-08-16T13:50:54.753Z,94977.59
2022-08-16T13:53:25.903Z,94970.22
2022-08-16T13:55:58.636Z,94976.00
2022-08-16T13:58:36.979Z,94967.50
2022-08-16T14:01:17.101Z,94971.50
2022-08-16T14:03:45.145Z,94970.06
2022-08-16T14:06:14.798Z,94954.22
2022-08-16T14:08:44.922Z,94960.44
2022-08-16T14:11:27.811Z,94961.94
2022-08-16T14:13:57.382Z,94958.94
2022-08-16T14:16:33.901Z,94966.16
2022-08-16T14:19:02.685Z,94969.13
2022-08-16T14:21:35.188Z,94957.66
2022-08-16T14:24:16.739Z,94961.94
2022-08-16T14:26:50.877Z,94956.06
2022-08-16T14:29:20.738Z,94950.44
2022-08-16T14:31:49.567Z,94947.34
2022-08-16T14:34:21.424Z,94953.09
2022-08-16T14:36:54.014Z,94950.38
2022-08-16T14:39:23.205Z,94952.31
2022-08-16T14:41:53.580Z,94951.38
2022-08-16T14:44:24.117Z,94951.06
2022-08-16T14:46:55.082Z,94948.00
2022-08-16T14:49:23.473Z,94949.50
2022-08-16T14:51:52.514Z,94946.53
2022-08-16T14:54:21.704Z,94951.06
2022-08-16T14:56:54.928Z,94942.22
2022-08-16T14:59:23.368Z,94947.88
2022-08-16T15:01:58.780Z,94939.91
2022-08-16T15:04:39.266Z,94939.91
2022-08-16T15:07:12.591Z,94934.31
2022-08-16T15:09:44.648Z,94943.63
2022-08-16T15:12:34.050Z,94947.34
2022-08-16T15:15:12.980Z,94949.88
2022-08-16T15:17:53.909Z,94943.53
2022-08-16T15:20:23.549Z,94947.50
2022-08-16T15:22:55.487Z,94943.97
2022-08-16T15:25:29.069Z,94938.06
2022-08-16T15:27:59.238Z,94939.25
2022-08-16T15:30:57.126Z,94931.41
2022-08-16T15:33:18.233Z,94943.13
2022-08-16T15:35:50.131Z,94941.41
2022-08-16T15:38:57.785Z,94953.38
2022-08-16T15:41:07.336Z,94944.81
2022-08-16T15:43:39.993Z,94948.00
2022-08-16T15:46:35.331Z,94950.00
2022-08-16T15:49:12.411Z,94938.13
2022-08-16T15:51:43.585Z,94950.41
2022-08-16T15:54:21.472Z,94945.63
2022-08-16T15:57:11.387Z,94932.06
2022-08-16T15:59:48.956Z,94938.69
2022-08-16T16:02:30.344Z,94932.44
2022-08-16T16:05:01.686Z,94931.78
2022-08-16T16:07:33.385Z,94933.50
2022-08-16T16:10:02.760Z,94933.03
2022-08-16T16:12:54.005Z,94938.03
2022-08-16T16:15:22.908Z,94935.94
2022-08-16T16:17:53.111Z,94933.41
2022-08-16T16:20:22.856Z,94941.63
2022-08-16T16:22:57.626Z,94939.34
2022-08-16T16:25:26.309Z,94930.94
2022-08-16T16:27:55.298Z,94930.94
2022-08-16T16:30:33.395Z,94928.47
2022-08-16T16:33:15.578Z,94929.81
2022-08-16T16:35:55.450Z,94928.03
2022-08-16T16:38:28.790Z,94935.97
2022-08-16T16:40:57.725Z,94934.06
2022-08-16T16:43:31.998Z,94930.22
2022-08-16T16:46:05.835Z,94938.16
2022-08-16T16:48:52.688Z,94935.25
2022-08-16T16:51:22.544Z,94934.81
2022-08-16T16:53:56.301Z,94935.22
2022-08-16T16:56:31.250Z,94934.16
2022-08-16T16:59:06.613Z,94926.50
2022-08-16T17:01:59.659Z,94933.50
2022-08-16T17:04:31.467Z,94939.03
2022-08-16T17:07:01.594Z,94937.13
2022-08-16T17:09:29.840Z,94940.88
2022-08-16T17:11:58.394Z,94933.00
2022-08-16T17:14:33.593Z,94940.88
2022-08-16T17:17:06.787Z,94930.94
2022-08-16T17:19:40.936Z,94934.16
2022-08-16T17:22:14.079Z,94940.09
2022-08-16T17:24:45.601Z,94941.69
2022-08-16T17:27:19.402Z,94945.19
2022-08-16T17:30:15.104Z,94936.22
2022-08-16T17:32:50.622Z,94936.56
2022-08-16T17:35:34.297Z,94938.47
2022-08-16T17:38:06.291Z,94934.28
2022-08-16T17:40:47.573Z,94929.03
2022-08-16T17:43:27.448Z,94935.81
2022-08-16T17:45:55.764Z,94932.59
2022-08-16T17:48:25.144Z,94934.19
2022-08-16T17:50:54.719Z,94937.69
2022-08-16T17:53:23.263Z,94937.16
2022-08-16T17:55:51.967Z,94943.19
2022-08-16T17:58:23.339Z,94946.16
2022-08-16T18:00:54.184Z,94945.94
2022-08-16T18:04:08.028Z,94938.09
2022-08-16T18:06:15.667Z,94944.38
2022-08-16T18:08:43.983Z,94944.28
2022-08-16T18:11:13.432Z,94957.56
2022-08-16T18:13:43.056Z,94954.63
2022-08-16T18:16:11.443Z,94954.66
2022-08-16T18:18:40.457Z,94963.31
2022-08-16T18:21:25.944Z,94960.94
2022-08-16T18:23:54.026Z,94963.75
2022-08-16T18:26:21.700Z,94959.16
2022-08-16T18:28:50.678Z,94963.41
2022-08-16T18:31:18.442Z,94966.00
2022-08-16T18:33:47.595Z,94965.75
2022-08-16T18:36:20.549Z,94971.94
2022-08-16T18:38:49.928Z,94960.81
2022-08-16T18:41:18.389Z,94970.19
2022-08-16T18:44:22.375Z,94970.97
2022-08-16T18:46:34.983Z,94982.22
2022-08-16T18:49:04.615Z,94979.38
2022-08-16T18:51:32.267Z,94987.34
2022-08-16T18:54:00.259Z,94987.72
2022-08-16T18:56:57.015Z,94982.47
2022-08-16T18:59:15.878Z,94994.44
2022-08-16T19:01:43.614Z,95002.78
2022-08-16T19:04:55.992Z,94994.50
2022-08-16T19:07:00.874Z,94998.09
2022-08-16T19:09:29.035Z,94993.63
2022-08-16T19:11:56.670Z,95004.81
2022-08-16T19:14:30.321Z,95002.84
2022-08-16T19:16:57.961Z,94999.47
2022-08-16T19:19:27.557Z,95008.97
2022-08-16T19:21:55.250Z,95009.81
2022-08-16T19:24:23.571Z,95013.63
2022-08-16T19:26:57.233Z,95009.78
2022-08-16T19:29:25.351Z,95010.91
2022-08-16T19:31:53.016Z,95003.66
2022-08-16T19:34:20.944Z,95018.00
2022-08-16T19:36:50.286Z,95009.09
2022-08-16T19:39:18.483Z,95011.84
2022-08-16T19:41:53.443Z,95012.97
2022-08-16T19:44:22.174Z,95014.06
2022-08-16T19:46:49.852Z,95011.97
2022-08-16T19:49:18.145Z,95017.16
2022-08-16T19:51:45.804Z,95017.56
2022-08-16T19:54:15.712Z,95021.97
2022-08-16T19:56:43.352Z,95023.13
2022-08-16T19:59:20.337Z,95029.63
2022-08-16T20:01:51.877Z,95022.69
2022-08-16T20:04:21.491Z,95035.03
2022-08-16T20:06:49.292Z,95028.03
2022-08-16T20:09:18.467Z,95026.44
2022-08-16T20:11:46.326Z,95022.16
2022-08-16T20:14:24.840Z,95023.75
2022-08-16T20:16:56.564Z,95033.44
2022-08-16T20:19:25.555Z,95032.91
2022-08-16T20:21:53.292Z,95038.81
2022-08-16T20:24:34.018Z,95037.72
2022-08-16T20:27:05.985Z,95044.16
2022-08-16T20:29:34.939Z,95046.31
2022-08-16T20:32:02.637Z,95040.41
2022-08-16T20:34:30.780Z,95043.63
2022-08-16T20:36:58.580Z,95047.38
2022-08-16T20:39:28.096Z,95044.16
2022-08-16T20:41:55.877Z,95052.19
2022-08-16T20:44:25.270Z,95050.59
2022-08-16T20:46:53.891Z,95048.19
2022-08-16T20:49:21.606Z,95046.28
2022-08-16T20:51:53.738Z,95051.13
2022-08-16T20:54:22.825Z,95052.19
2022-08-16T20:56:52.763Z,95058.66
2022-08-16T20:59:20.558Z,95062.38
2022-08-16T21:01:50.302Z,95055.41
2022-08-16T21:04:20.399Z,95060.78
2022-08-16T21:06:53.829Z,95051.13
2022-08-16T21:09:24.827Z,95057.50
2022-08-16T21:11:56.285Z,95060.72
2022-08-16T21:14:25.129Z,95058.53
2022-08-16T21:16:52.787Z,95054.75
2022-08-16T21:19:20.658Z,95055.25
2022-08-16T21:21:49.842Z,95061.09
2022-08-16T21:24:17.686Z,95058.88
2022-08-16T21:26:54.020Z,95065.94
2022-08-16T21:29:33.679Z,95061.72
2022-08-16T21:32:13.266Z,95068.00
2022-08-16T21:34:42.049Z,95065.94
2022-08-16T21:37:10.697Z,95065.88
2022-08-16T21:39:39.989Z,95072.28
2022-08-16T21:42:12.674Z,95069.53
2022-08-16T21:44:42.738Z,95075.31
2022-08-16T21:47:10.424Z,95084.88
2022-08-16T21:49:39.286Z,95072.81
2022-08-16T21:52:09.423Z,95066.41
2022-08-16T21:54:50.857Z,95066.13
2022-08-16T21:57:22.486Z,95060.75
2022-08-16T21:59:52.739Z,95055.41
2022-08-16T22:02:22.758Z,95059.13
2022-08-16T22:04:51.543Z,95057.56
2022-08-16T22:07:19.271Z,95059.19
2022-08-16T22:09:48.554Z,95063.19
2022-08-16T22:12:21.491Z,95059.97
2022-08-16T22:14:53.408Z,95069.03
2022-08-16T22:17:21.440Z,95069.59
2022-08-16T22:19:49.087Z,95065.34
2022-08-16T22:22:17.428Z,95065.91
2022-08-16T22:24:45.222Z,95065.78
2022-08-16T22:27:12.892Z,95072.19
2022-08-16T22:29:42.135Z,95066.50
2022-08-16T22:32:11.915Z,95063.56
2022-08-16T22:34:39.602Z,95066.25
2022-08-16T22:37:07.658Z,95065.75
2022-08-16T22:39:35.371Z,95068.38
2022-08-16T22:42:08.560Z,95059.38
2022-08-16T22:44:36.913Z,95071.38
2022-08-16T22:47:05.359Z,95058.81
2022-08-16T22:49:34.388Z,95068.03
2022-08-16T22:52:07.244Z,95067.00
2022-08-16T22:54:47.841Z,95073.44
2022-08-16T22:57:16.676Z,95066.91
2022-08-16T22:59:44.360Z,95065.81
2022-08-16T23:02:12.695Z,95054.97
2022-08-16T23:04:42.359Z,95060.00
2022-08-16T23:07:10.396Z,95058.22
2022-08-16T23:09:38.150Z,95056.91
2022-08-16T23:12:07.234Z,95065.31
2022-08-16T23:14:35.128Z,95060.94
2022-08-16T23:17:03.155Z,95070.34
2022-08-16T23:19:30.896Z,95057.22
2022-08-16T23:22:00.701Z,95058.53
2022-08-16T23:24:28.647Z,95059.03
2022-08-16T23:26:57.136Z,95057.03
2022-08-16T23:29:26.469Z,95046.84
2022-08-16T23:31:58.612Z,95050.00
2022-08-16T23:34:28.264Z,95050.78
2022-08-16T23:36:56.951Z,95041.25
2022-08-16T23:39:26.217Z,95037.53
2022-08-16T23:41:54.430Z,95043.28
2022-08-16T23:44:57.520Z,95046.91
2022-08-16T23:47:10.264Z,95043.34
2022-08-16T23:49:59.494Z,95033.78
2022-08-16T23:52:53.209Z,95034.94
2022-08-16T23:55:17.144Z,95027.75
2022-08-16T23:57:46.417Z,95031.22
